Time;durP1;ratioP1;P1;durP2;ratioP2;P2;SDS_P1;SDS_P2;PMS_P1;PMS_P2;Temp;Humidity;BMP_temperature;BMP_pressure;BME280_temperature;BME280_humidity;BME280_pressure;Samples;Min_cycle;Max_cycle;Signal;HPM_P1;HPM_P2
2021/01/24 00:00:09;;;;;;;30.38;16.13;;;;;;;5.66;60.03;98245.97;5061811;28;20044;-69
2021/01/24 00:02:35;;;;;;;21.52;14.25;;;;;;;5.64;60.23;98247.88;5047742;28;20499;-72
2021/01/24 00:05:02;;;;;;;27.50;13.48;;;;;;;5.55;60.19;98245.06;5064456;28;20052;-73
2021/01/24 00:07:28;;;;;;;23.02;12.77;;;;;;;5.55;60.22;98244.25;5062116;28;20427;-71
2021/01/24 00:09:56;;;;;;;20.35;13.05;;;;;;;5.53;60.30;98249.59;5065802;28;20048;-74
2021/01/24 00:12:22;;;;;;;17.48;10.98;;;;;;;5.52;60.28;98245.31;5065807;28;20869;-74
2021/01/24 00:14:49;;;;;;;17.48;10.27;;;;;;;5.53;60.16;98240.94;5065768;28;20044;-76
2021/01/24 00:17:15;;;;;;;17.05;10.98;;;;;;;5.54;60.21;98238.16;5046073;28;20127;-69
2021/01/24 00:19:41;;;;;;;18.38;9.90;;;;;;;5.54;59.98;98232.91;5064855;28;20048;-75
2021/01/24 00:22:08;;;;;;;19.35;10.70;;;;;;;5.49;60.13;98235.13;5065641;28;20059;-71
2021/01/24 00:24:34;;;;;;;17.55;9.80;;;;;;;5.48;60.34;98227.38;5063918;28;20393;-67
2021/01/24 00:27:02;;;;;;;16.30;9.10;;;;;;;5.47;60.33;98230.94;5064221;28;20498;-74
2021/01/24 00:29:29;;;;;;;16.95;9.68;;;;;;;5.47;60.28;98234.38;5048210;28;20123;-68
2021/01/24 00:31:55;;;;;;;15.30;9.73;;;;;;;5.48;60.37;98228.22;5064195;28;20058;-70
2021/01/24 00:34:22;;;;;;;16.80;11.15;;;;;;;5.50;60.16;98235.94;5067190;28;20041;-73
2021/01/24 00:36:48;;;;;;;17.15;8.90;;;;;;;5.51;60.15;98230.56;5064506;28;20056;-69
2021/01/24 00:39:15;;;;;;;17.92;10.48;;;;;;;5.48;60.27;98236.06;5061057;28;20048;-68
2021/01/24 00:41:41;;;;;;;14.80;10.48;;;;;;;5.48;60.45;98230.81;5062210;28;20040;-70
2021/01/24 00:44:08;;;;;;;17.85;10.98;;;;;;;5.49;60.36;98235.13;5063120;28;20156;-70
2021/01/24 00:46:35;;;;;;;19.90;11.30;;;;;;;5.47;60.29;98238.81;5062426;28;20041;-68
2021/01/24 00:49:02;;;;;;;19.15;11.15;;;;;;;5.45;60.57;98232.88;5062041;28;20085;-69
2021/01/24 00:51:28;;;;;;;21.35;12.55;;;;;;;5.44;60.56;98237.28;5063195;28;20052;-70
2021/01/24 00:53:55;;;;;;;21.50;12.18;;;;;;;5.46;60.56;98230.13;5062088;28;20516;-69
2021/01/24 00:56:21;;;;;;;24.75;13.05;;;;;;;5.50;60.53;98230.69;5062662;28;20040;-67
2021/01/24 00:58:48;;;;;;;21.17;11.30;;;;;;;5.51;60.58;98227.09;5062767;28;20103;-69
2021/01/24 01:01:17;;;;;;;19.00;11.20;;;;;;;5.50;60.57;98218.44;5062180;28;20564;-69
2021/01/24 01:03:44;;;;;;;23.63;13.80;;;;;;;5.47;60.61;98210.81;5062715;28;20048;-69
2021/01/24 01:06:11;;;;;;;28.20;13.95;;;;;;;5.47;60.72;98220.47;5063111;28;20588;-69
2021/01/24 01:08:37;;;;;;;25.70;14.27;;;;;;;5.47;60.73;98215.25;5062965;28;20052;-69
2021/01/24 01:11:04;;;;;;;30.45;17.38;;;;;;;5.48;60.69;98211.69;5067437;28;20491;-69
2021/01/24 01:13:30;;;;;;;36.17;22.85;;;;;;;5.42;60.76;98213.03;5066642;28;20401;-70
2021/01/24 01:15:57;;;;;;;34.75;20.05;;;;;;;5.39;60.93;98210.66;5065742;28;20052;-68
2021/01/24 01:18:24;;;;;;;23.90;15.05;;;;;;;5.35;60.99;98214.50;5066833;28;20051;-70
2021/01/24 01:20:50;;;;;;;26.10;13.70;;;;;;;5.34;61.06;98204.97;5066209;28;20185;-69
2021/01/24 01:23:17;;;;;;;27.17;14.13;;;;;;;5.35;61.03;98211.88;5066842;28;20059;-68
2021/01/24 01:25:45;;;;;;;26.92;14.07;;;;;;;5.37;60.99;98212.56;5067140;28;20044;-70
2021/01/24 01:28:11;;;;;;;28.48;17.05;;;;;;;5.41;61.08;98205.28;5067787;28;20084;-68
2021/01/24 01:30:38;;;;;;;33.55;17.65;;;;;;;5.40;61.16;98203.63;5066561;28;20629;-66
2021/01/24 01:33:04;;;;;;;30.67;17.65;;;;;;;5.37;61.17;98207.34;5066084;28;20106;-70
2021/01/24 01:35:32;;;;;;;29.52;16.73;;;;;;;5.40;61.22;98204.44;5066555;28;20506;-70
2021/01/24 01:37:58;;;;;;;30.27;15.55;;;;;;;5.35;61.35;98209.25;5046396;28;20481;-68
2021/01/24 01:40:24;;;;;;;29.27;15.85;;;;;;;5.34;61.17;98200.56;5066911;28;20117;-69
2021/01/24 01:42:51;;;;;;;25.60;15.07;;;;;;;5.33;61.37;98204.16;5066060;28;20044;-68
2021/01/24 01:45:17;;;;;;;26.35;14.07;;;;;;;5.38;61.41;98205.53;5065382;28;20044;-67
2021/01/24 01:47:44;;;;;;;26.15;15.82;;;;;;;5.36;61.24;98206.50;5066405;28;20056;-67
2021/01/24 01:50:12;;;;;;;24.55;15.10;;;;;;;5.34;61.30;98194.50;5066724;28;20144;-69
2021/01/24 01:52:39;;;;;;;30.73;17.35;;;;;;;5.28;61.67;98180.16;5065224;28;20059;-69
2021/01/24 01:55:06;;;;;;;41.33;22.88;;;;;;;5.14;61.93;98170.81;5067359;28;20053;-68
2021/01/24 01:57:33;;;;;;;41.40;24.38;;;;;;;5.02;62.13;98169.22;5065443;28;20044;-69
2021/01/24 01:59:59;;;;;;;42.22;22.65;;;;;;;4.96;62.55;98161.88;5065722;28;20118;-68
2021/01/24 02:02:36;;;;;;;41.08;22.65;;;;;;;4.98;62.49;98155.56;5067192;28;20044;-68
2021/01/24 02:05:07;;;;;;;43.22;22.05;;;;;;;4.98;62.56;98145.09;5066663;28;20044;-68
2021/01/24 02:07:39;;;;;;;41.13;22.35;;;;;;;5.00;62.32;98144.16;5064486;28;20086;-68
2021/01/24 02:10:11;;;;;;;37.38;20.52;;;;;;;5.03;62.43;98146.53;5067407;28;20045;-70
2021/01/24 02:12:42;;;;;;;35.38;21.13;;;;;;;5.04;62.37;98142.94;5066385;28;20208;-69
2021/01/24 02:15:10;;;;;;;33.50;19.08;;;;;;;5.03;62.37;98133.44;5066115;28;20470;-69
2021/01/24 02:17:39;;;;;;;35.45;18.70;;;;;;;5.04;62.30;98135.94;5067039;28;20476;-68
2021/01/24 02:20:13;;;;;;;37.22;22.00;;;;;;;5.02;62.44;98121.31;5065345;28;20045;-69
2021/01/24 02:22:41;;;;;;;36.10;21.13;;;;;;;4.93;62.66;98123.75;5065933;28;20386;-71
2021/01/24 02:25:15;;;;;;;35.30;20.02;;;;;;;4.87;63.15;98121.63;5066871;28;20471;-68
2021/01/24 02:27:49;;;;;;;34.30;20.35;;;;;;;4.88;63.10;98130.28;5064903;28;20047;-68
2021/01/24 02:30:24;;;;;;;39.05;20.73;;;;;;;4.87;63.13;98123.41;5066667;28;20051;-71
2021/01/24 02:32:59;;;;;;;37.00;20.20;;;;;;;4.88;62.89;98120.69;5067496;28;20044;-67
2021/01/24 02:35:30;;;;;;;31.80;17.67;;;;;;;4.88;63.02;98125.06;5064973;28;20626;-68
2021/01/24 02:37:59;;;;;;;30.48;17.52;;;;;;;4.87;63.01;98124.25;5064712;28;20129;-70
2021/01/24 02:40:26;;;;;;;32.75;19.70;;;;;;;4.89;63.03;98118.88;5049366;28;20040;-70
2021/01/24 02:42:53;;;;;;;36.08;20.50;;;;;;;4.85;63.00;98122.72;5065653;28;20497;-66
2021/01/24 02:45:23;;;;;;;33.75;20.40;;;;;;;4.83;63.30;98115.00;5067501;28;20186;-68
2021/01/24 02:47:49;;;;;;;29.90;19.77;;;;;;;4.82;63.47;98115.13;5066136;28;20140;-69
2021/01/24 02:50:17;;;;;;;42.95;26.30;;;;;;;4.82;63.35;98112.50;5065353;28;20393;-68
2021/01/24 02:52:44;;;;;;;57.17;26.08;;;;;;;4.84;63.53;98118.44;5066833;28;20055;-67
2021/01/24 02:55:11;;;;;;;67.00;30.35;;;;;;;4.86;63.35;98121.75;5066031;28;20060;-69
2021/01/24 02:57:39;;;;;;;65.57;28.52;;;;;;;4.95;63.22;98119.22;5065547;28;20443;-70
2021/01/24 03:00:08;;;;;;;56.10;28.70;;;;;;;5.00;63.20;98107.53;5067102;28;20044;-68
2021/01/24 03:02:36;;;;;;;52.38;26.33;;;;;;;4.96;63.24;98104.34;5065289;28;20464;-68
2021/01/24 03:05:04;;;;;;;50.55;25.50;;;;;;;4.97;63.08;98117.28;5031120;28;20178;-69
2021/01/24 03:07:30;;;;;;;40.90;22.23;;;;;;;5.00;63.05;98103.13;5066162;28;20501;-70
2021/01/24 03:09:57;;;;;;;49.30;25.15;;;;;;;4.97;63.22;98101.59;5063632;28;20056;-68
2021/01/24 03:12:27;;;;;;;56.63;30.67;;;;;;;4.90;63.42;98094.41;5066242;28;20112;-66
2021/01/24 03:14:54;;;;;;;58.75;30.65;;;;;;;4.83;63.63;98096.69;5066177;28;20049;-70
2021/01/24 03:17:23;;;;;;;60.78;32.20;;;;;;;4.76;63.87;98088.53;5066252;28;20369;-69
2021/01/24 03:19:51;;;;;;;63.10;34.92;;;;;;;4.74;63.91;98090.44;5066061;28;20377;-68
2021/01/24 03:22:20;;;;;;;41.05;24.67;;;;;;;4.74;64.07;98087.00;5066145;28;20044;-68
2021/01/24 03:24:49;;;;;;;33.50;19.60;;;;;;;4.74;64.05;98093.06;5065341;28;20722;-70
2021/01/24 03:27:16;;;;;;;35.88;19.58;;;;;;;4.83;63.72;98103.72;5066736;28;20044;-71
2021/01/24 03:29:42;;;;;;;33.92;18.63;;;;;;;4.91;63.31;98091.63;5066310;28;20063;-71
2021/01/24 03:32:09;;;;;;;32.67;20.50;;;;;;;4.91;63.40;98089.00;5064775;28;20106;-67
2021/01/24 03:34:35;;;;;;;34.60;20.60;;;;;;;4.87;63.58;98090.25;5065123;28;20098;-68
2021/01/24 03:37:03;;;;;;;37.80;21.52;;;;;;;4.81;63.79;98098.63;5065082;28;20602;-69
2021/01/24 03:39:29;;;;;;;37.65;20.33;;;;;;;4.81;63.72;98100.38;5062950;28;20416;-68
2021/01/24 03:41:55;;;;;;;36.22;22.02;;;;;;;4.82;63.80;98083.75;5066037;28;20102;-67
2021/01/24 03:44:22;;;;;;;44.17;21.50;;;;;;;4.83;63.50;98088.84;5064435;28;20473;-68
2021/01/24 03:46:48;;;;;;;43.47;23.17;;;;;;;4.82;63.64;98081.13;5064550;28;20053;-70
2021/01/24 03:49:15;;;;;;;36.97;20.23;;;;;;;4.75;63.78;98080.78;5065430;28;20055;-68
2021/01/24 03:51:41;;;;;;;32.88;19.25;;;;;;;4.74;63.66;98090.44;5064807;28;20052;-68
2021/01/24 03:54:09;;;;;;;35.28;20.58;;;;;;;4.77;63.88;98087.56;5064653;28;20045;-68
2021/01/24 03:56:35;;;;;;;36.35;18.35;;;;;;;4.78;63.62;98091.00;5065706;28;20114;-67
2021/01/24 03:59:01;;;;;;;31.02;17.83;;;;;;;4.78;63.68;98094.44;5064885;28;20056;-69
2021/01/24 04:01:29;;;;;;;29.38;17.92;;;;;;;4.82;63.60;98091.59;5065468;28;20044;-66
2021/01/24 04:03:56;;;;;;;33.03;17.92;;;;;;;4.81;63.61;98080.31;5064477;28;20612;-68
2021/01/24 04:06:22;;;;;;;32.28;18.52;;;;;;;4.79;63.60;98095.28;5064961;28;20045;-66
2021/01/24 04:08:48;;;;;;;27.67;18.85;;;;;;;4.80;63.55;98102.16;5062247;28;20056;-67
2021/01/24 04:11:16;;;;;;;40.72;19.85;;;;;;;4.84;63.48;98102.75;5065044;28;20652;-67
2021/01/24 04:13:43;;;;;;;32.53;18.20;;;;;;;4.87;63.57;98102.50;5064846;28;20041;-67
2021/01/24 04:16:10;;;;;;;36.28;19.05;;;;;;;4.92;63.28;98105.56;5065362;28;20049;-66
2021/01/24 04:18:36;;;;;;;36.70;19.00;;;;;;;4.96;63.22;98096.50;5068156;28;20052;-67
2021/01/24 04:21:03;;;;;;;31.05;18.83;;;;;;;5.00;63.20;98097.88;5068279;28;20041;-68
2021/01/24 04:23:29;;;;;;;34.10;17.55;;;;;;;5.04;62.81;98099.31;5070041;28;20447;-67
2021/01/24 04:25:57;;;;;;;34.80;18.80;;;;;;;5.07;63.06;98098.19;5069645;28;20051;-67
2021/01/24 04:28:39;;;;;;;27.08;15.70;;;;;;;5.03;63.31;98092.41;5070216;28;20412;-68
2021/01/24 04:31:05;;;;;;;32.65;17.83;;;;;;;4.99;63.31;98085.78;5070858;28;20459;-67
2021/01/24 04:33:32;;;;;;;34.03;17.17;;;;;;;4.97;63.05;98090.31;5069429;28;20083;-68
2021/01/24 04:35:58;;;;;;;31.73;18.55;;;;;;;4.89;63.54;98072.63;5073741;28;20045;-67
2021/01/24 04:38:25;;;;;;;34.70;19.85;;;;;;;4.85;63.61;98081.69;5076904;28;20222;-66
2021/01/24 04:40:51;;;;;;;34.35;18.98;;;;;;;4.84;63.62;98090.47;5080428;28;20154;-67
2021/01/24 04:43:18;;;;;;;33.80;17.88;;;;;;;4.92;63.45;98100.31;5081412;28;20052;-68
2021/01/24 04:45:45;;;;;;;35.08;18.45;;;;;;;5.01;63.29;98104.78;5070628;28;20045;-69
2021/01/24 04:48:12;;;;;;;29.08;17.85;;;;;;;5.03;63.25;98104.66;5069134;28;20052;-71
2021/01/24 04:50:38;;;;;;;33.85;18.58;;;;;;;5.02;63.33;98111.66;5067715;28;20044;-70
2021/01/24 04:53:05;;;;;;;38.90;19.92;;;;;;;5.05;63.42;98106.19;5068297;28;20059;-70
2021/01/24 04:55:32;;;;;;;37.55;19.50;;;;;;;5.13;63.31;98114.22;5067289;28;20048;-70
2021/01/24 04:57:58;;;;;;;34.03;18.05;;;;;;;5.27;62.98;98114.84;5065752;28;20049;-70
2021/01/24 05:00:25;;;;;;;32.53;19.00;;;;;;;5.31;62.99;98108.38;5066757;28;20056;-71
2021/01/24 05:02:53;;;;;;;32.78;18.17;;;;;;;5.26;63.10;98100.94;5065498;28;20044;-70
2021/01/24 05:05:19;;;;;;;27.88;16.83;;;;;;;5.25;62.97;98101.88;5064879;28;20048;-69
2021/01/24 05:07:54;;;;;;;33.53;17.42;;;;;;;5.25;63.11;98098.44;5063642;28;20143;-70
2021/01/24 05:10:25;;;;;;;24.58;16.30;;;;;;;5.29;62.89;98100.66;5065669;28;20652;-70
2021/01/24 05:12:52;;;;;;;31.73;19.23;;;;;;;5.32;62.87;98105.63;5065604;28;20123;-69
2021/01/24 05:15:18;;;;;;;32.55;16.55;;;;;;;5.39;62.76;98105.94;5065278;28;20048;-71
2021/01/24 05:17:53;;;;;;;27.98;15.98;;;;;;;5.45;62.82;98081.03;5064745;28;20064;-70
2021/01/24 05:20:24;;;;;;;30.27;15.15;;;;;;;5.41;62.69;98074.41;5064432;28;20047;-70
2021/01/24 05:22:51;;;;;;;27.70;16.30;;;;;;;5.24;62.73;98075.81;5065233;28;20062;-69
2021/01/24 05:25:19;;;;;;;30.25;16.25;;;;;;;5.12;63.32;98073.31;5065028;28;20055;-69
2021/01/24 05:27:46;;;;;;;30.83;15.07;;;;;;;5.03;63.43;98074.09;5046942;28;20052;-71
2021/01/24 05:30:14;;;;;;;32.63;16.50;;;;;;;5.05;63.27;98074.78;5064938;28;20071;-70
2021/01/24 05:32:42;;;;;;;31.33;15.13;;;;;;;5.07;63.28;98067.63;5064311;28;20554;-68
2021/01/24 05:35:14;;;;;;;27.23;16.70;;;;;;;5.05;63.59;98076.56;5064530;28;20747;-70
2021/01/24 05:37:44;;;;;;;27.35;15.02;;;;;;;5.03;63.37;98076.69;5063825;28;20055;-70
2021/01/24 05:40:11;;;;;;;33.95;16.98;;;;;;;5.01;63.50;98078.63;5064542;28;20056;-69
2021/01/24 05:42:38;;;;;;;33.40;18.38;;;;;;;4.99;63.40;98080.53;5066428;28;20041;-70
2021/01/24 05:45:10;;;;;;;32.28;18.70;;;;;;;4.96;63.45;98076.38;5065154;28;20045;-70
2021/01/24 05:47:37;;;;;;;37.17;20.17;;;;;;;4.95;63.53;98087.81;5065197;28;20052;-71
2021/01/24 05:50:09;;;;;;;34.35;19.85;;;;;;;4.96;63.53;98088.63;5065764;28;20056;-71
2021/01/24 05:52:40;;;;;;;34.63;19.33;;;;;;;5.04;63.36;98088.00;5064842;28;20072;-70
2021/01/24 05:55:08;;;;;;;38.60;18.15;;;;;;;5.11;63.26;98076.91;5068763;28;20049;-68
2021/01/24 05:57:36;;;;;;;35.72;20.02;;;;;;;5.08;63.14;98079.75;5068822;28;20493;-69
2021/01/24 06:00:05;;;;;;;31.08;17.25;;;;;;;4.95;63.54;98063.44;5067493;28;20106;-70
2021/01/24 06:02:32;;;;;;;33.38;18.73;;;;;;;4.88;63.78;98068.38;5067510;28;20049;-70
2021/01/24 06:04:59;;;;;;;39.40;22.33;;;;;;;4.83;63.86;98069.72;5068598;28;20040;-70
2021/01/24 06:07:25;;;;;;;55.55;25.40;;;;;;;4.81;63.85;98075.06;5067532;28;20057;-72
2021/01/24 06:09:53;;;;;;;50.33;28.27;;;;;;;4.80;63.82;98076.00;5066549;28;20496;-71
2021/01/24 06:12:24;;;;;;;42.08;26.17;;;;;;;4.77;63.98;98071.88;5068567;28;20052;-69
2021/01/24 06:14:52;;;;;;;47.95;28.50;;;;;;;4.78;63.83;98077.94;5068109;28;20045;-70
2021/01/24 06:17:29;;;;;;;48.10;23.85;;;;;;;4.82;64.18;98073.28;5069410;28;20041;-70
2021/01/24 06:20:00;;;;;;;43.08;26.30;;;;;;;4.80;63.96;98055.09;5069879;28;20040;-69
2021/01/24 06:22:38;;;;;;;40.00;22.38;;;;;;;4.72;64.18;98060.16;5067301;28;20730;-69
2021/01/24 06:25:12;;;;;;;31.30;18.20;;;;;;;4.65;64.18;98057.22;5069235;28;20049;-71
2021/01/24 06:27:43;;;;;;;39.83;20.17;;;;;;;4.67;64.17;98054.47;5068416;28;20405;-69
2021/01/24 06:30:13;;;;;;;54.38;29.02;;;;;;;4.76;63.91;98058.94;5067207;28;20088;-70
2021/01/24 06:32:39;;;;;;;62.65;32.83;;;;;;;4.84;63.93;98064.34;5067227;28;20545;-70
2021/01/24 06:35:20;;;;;;;49.08;25.27;;;;;;;4.94;63.68;98067.03;5067602;28;20055;-72
2021/01/24 06:37:48;;;;;;;47.17;21.30;;;;;;;4.96;63.64;98059.88;5065667;28;20045;-70
2021/01/24 06:40:26;;;;;;;37.20;19.35;;;;;;;4.97;63.81;98056.31;5067467;28;20476;-71
2021/01/24 06:42:58;;;;;;;33.05;17.73;;;;;;;4.96;63.79;98050.22;5066758;28;20048;-68
2021/01/24 06:45:41;;;;;;;35.97;17.65;;;;;;;4.92;63.82;98053.25;5066929;28;20401;-70
2021/01/24 06:48:10;;;;;;;37.65;18.00;;;;;;;4.86;63.87;98046.75;5048489;28;20048;-71
2021/01/24 06:50:42;;;;;;;32.92;18.02;;;;;;;4.88;64.05;98046.59;5065381;28;20756;-69
2021/01/24 06:53:10;;;;;;;39.13;19.50;;;;;;;4.96;63.79;98052.03;5066430;28;20067;-69
2021/01/24 06:55:38;;;;;;;37.00;22.50;;;;;;;5.02;63.64;98048.06;5067912;28;20049;-71
2021/01/24 06:58:27;;;;;;;84.30;41.05;;;;;;;5.04;63.95;98049.59;5066521;28;20076;-70
2021/01/24 07:01:14;;;;;;;70.75;35.38;;;;;;;5.07;63.66;98051.94;5067347;28;20040;-68
2021/01/24 07:03:42;;;;;;;63.38;33.08;;;;;;;5.13;63.38;98056.66;5066825;28;20056;-70
2021/01/24 07:06:41;;;;;;;65.18;34.13;;;;;;;5.25;63.53;98043.47;5064348;28;20527;-70
2021/01/24 07:09:38;;;;;;;75.90;37.70;;;;;;;5.27;63.21;98046.78;5000947;28;20256;-72
2021/01/24 07:12:10;;;;;;;63.03;36.33;;;;;;;5.27;63.36;98038.94;5005554;28;20050;-69
2021/01/24 07:14:49;;;;;;;56.30;32.53;;;;;;;5.25;63.47;98035.63;5003788;28;20057;-75
2021/01/24 07:17:18;;;;;;;65.30;42.63;;;;;;;5.18;63.37;98032.69;5006477;28;20057;-71
2021/01/24 07:19:46;;;;;;;66.15;46.55;;;;;;;5.13;63.61;98035.72;5006075;28;20049;-73
2021/01/24 07:22:13;;;;;;;39.30;28.40;;;;;;;5.09;63.70;98033.47;5006415;28;20133;-69
2021/01/24 07:24:46;;;;;;;37.45;22.42;;;;;;;5.06;63.82;98029.34;5003312;28;20092;-72
2021/01/24 07:27:18;;;;;;;38.42;23.35;;;;;;;5.05;63.68;98030.31;5002075;28;20634;-70
2021/01/24 07:29:45;;;;;;;36.45;21.88;;;;;;;5.09;63.65;98030.88;5003782;28;20053;-70
2021/01/24 07:32:13;;;;;;;34.33;19.08;;;;;;;5.15;63.55;98027.75;5002670;28;20050;-71
2021/01/24 07:34:40;;;;;;;43.78;24.83;;;;;;;5.30;63.32;98022.97;5001176;28;20151;-69
2021/01/24 07:37:07;;;;;;;45.22;28.52;;;;;;;5.40;63.07;98018.56;5002738;28;20046;-70
2021/01/24 07:39:35;;;;;;;52.45;31.10;;;;;;;5.41;63.11;98017.63;5021710;28;20056;-73
2021/01/24 07:42:03;;;;;;;43.50;29.42;;;;;;;5.45;63.16;98013.78;5064783;28;20040;-68
2021/01/24 07:44:30;;;;;;;41.15;24.15;;;;;;;5.51;62.87;98028.09;5066520;28;20052;-73
2021/01/24 07:46:56;;;;;;;28.95;17.83;;;;;;;5.43;63.28;98035.81;5064286;28;20059;-73
2021/01/24 07:49:24;;;;;;;31.85;18.58;;;;;;;5.43;63.18;98041.06;5063228;28;20637;-70
2021/01/24 07:51:51;;;;;;;31.92;20.13;;;;;;;5.47;63.19;98030.16;5065992;28;20045;-72
2021/01/24 07:54:18;;;;;;;30.52;17.30;;;;;;;5.46;63.07;98027.72;5065988;28;20049;-71
2021/01/24 07:56:45;;;;;;;31.15;18.67;;;;;;;5.49;63.10;98033.50;5064047;28;20602;-69
2021/01/24 07:59:11;;;;;;;42.60;22.25;;;;;;;5.53;62.93;98021.78;5064971;28;20112;-71
2021/01/24 08:01:41;;;;;;;44.95;25.38;;;;;;;5.57;63.00;98019.75;5068010;28;20059;-73
2021/01/24 08:04:08;;;;;;;36.75;25.80;;;;;;;5.49;62.83;98014.31;5068073;28;20064;-72
2021/01/24 08:06:36;;;;;;;40.25;23.45;;;;;;;5.42;63.00;98014.06;5066591;28;20083;-71
2021/01/24 08:09:06;;;;;;;30.13;18.98;;;;;;;5.50;62.98;98016.81;5065285;28;20079;-72
2021/01/24 08:11:33;;;;;;;35.95;20.08;;;;;;;5.61;62.77;98017.69;5067383;28;20068;-76
2021/01/24 08:14:01;;;;;;;36.38;23.80;;;;;;;5.59;62.63;98003.91;5069423;28;20044;-71
2021/01/24 08:16:38;;;;;;;48.65;32.63;;;;;;;5.55;62.92;98004.16;5045651;28;20159;-73
2021/01/24 08:19:08;;;;;;;50.80;33.63;;;;;;;5.59;62.92;98003.91;5026173;28;20085;-71
2021/01/24 08:21:36;;;;;;;52.53;34.88;;;;;;;5.60;62.79;98005.53;5043501;28;20045;-72
2021/01/24 08:24:04;;;;;;;37.15;25.15;;;;;;;5.56;62.72;98007.59;5041988;28;20623;-70
2021/01/24 08:26:31;;;;;;;31.95;19.08;;;;;;;5.50;63.02;98011.59;5043336;28;20446;-72
2021/01/24 08:28:59;;;;;;;41.22;18.92;;;;;;;5.39;63.13;98001.22;5041229;28;20053;-72
2021/01/24 08:31:26;;;;;;;41.00;20.40;;;;;;;5.35;63.34;97999.84;5040425;28;20045;-71
2021/01/24 08:33:53;;;;;;;58.58;29.65;;;;;;;5.36;63.19;97999.69;5042396;28;20410;-70
2021/01/24 08:36:22;;;;;;;50.25;27.70;;;;;;;5.45;63.17;97992.81;5039332;28;20055;-71
2021/01/24 08:38:50;;;;;;;61.45;32.20;;;;;;;5.49;62.96;97986.38;5037654;28;20049;-72
2021/01/24 08:41:17;;;;;;;44.13;26.23;;;;;;;5.44;62.95;97999.03;5041580;28;20055;-72
2021/01/24 08:43:44;;;;;;;48.22;25.95;;;;;;;5.35;63.02;98005.91;5041693;28;20216;-74
2021/01/24 08:46:22;;;;;;;56.08;29.45;;;;;;;5.36;63.15;97994.44;5040818;28;20044;-71
2021/01/24 08:49:04;;;;;;;59.30;30.52;;;;;;;5.41;63.17;97996.69;5041282;28;20553;-72
2021/01/24 08:51:46;;;;;;;45.08;24.20;;;;;;;5.42;63.19;97987.88;5041917;28;20049;-71
2021/01/24 08:54:28;;;;;;;39.03;19.40;;;;;;;5.38;62.93;97983.03;5039388;28;20071;-70
2021/01/24 08:57:10;;;;;;;44.10;24.02;;;;;;;5.35;63.19;97979.72;5035962;28;20416;-72
2021/01/24 08:59:36;;;;;;;69.28;37.35;;;;;;;5.31;63.08;97975.72;5040584;28;20088;-72
2021/01/24 09:02:04;;;;;;;87.38;44.13;;;;;;;5.25;63.21;97975.44;5039147;28;20335;-71
2021/01/24 09:04:32;;;;;;;79.32;42.80;;;;;;;5.29;63.25;97979.44;5039088;28;20041;-73
2021/01/24 09:07:05;;;;;;;72.93;40.72;;;;;;;5.25;63.51;97972.81;5038723;28;20048;-73
2021/01/24 09:09:32;;;;;;;54.17;32.45;;;;;;;5.26;63.33;97982.34;5035702;28;20079;-76
2021/01/24 09:12:00;;;;;;;59.97;36.58;;;;;;;5.24;63.44;97984.22;5041433;28;20056;-75
2021/01/24 09:14:28;;;;;;;72.15;39.65;;;;;;;5.30;63.41;97973.25;5040180;28;20504;-74
2021/01/24 09:17:04;;;;;;;53.10;30.33;;;;;;;5.34;63.21;97974.63;5045663;28;20051;-73
2021/01/24 09:19:33;;;;;;;75.90;44.50;;;;;;;5.29;63.26;97972.38;5045497;28;20395;-71
2021/01/24 09:22:00;;;;;;;74.95;41.60;;;;;;;5.21;63.42;97974.88;5042163;28;20056;-71
2021/01/24 09:24:30;;;;;;;51.90;28.30;;;;;;;5.20;63.55;97977.59;5038716;28;20049;-76
2021/01/24 09:26:57;;;;;;;40.45;22.42;;;;;;;5.08;63.71;97971.66;5040577;28;20045;-72
2021/01/24 09:29:23;;;;;;;31.83;18.48;;;;;;;4.89;64.14;97973.22;5042905;28;20053;-72
2021/01/24 09:31:56;;;;;;;36.05;20.08;;;;;;;4.79;64.36;97981.03;4991135;28;20128;-73
2021/01/24 09:34:22;;;;;;;34.72;21.40;;;;;;;4.77;64.31;97972.50;5048263;28;20056;-75
2021/01/24 09:36:50;;;;;;;43.58;23.60;;;;;;;4.73;64.67;97971.09;5043329;28;20483;-70
2021/01/24 09:39:17;;;;;;;33.17;19.27;;;;;;;4.73;64.42;97973.69;5039508;28;20308;-78
2021/01/24 09:41:45;;;;;;;36.08;21.05;;;;;;;4.57;64.61;97970.72;5005120;28;20629;-67
2021/01/24 09:44:11;;;;;;;36.05;19.92;;;;;;;4.49;64.96;97963.53;5036726;28;20525;-68
2021/01/24 09:46:39;;;;;;;39.22;20.58;;;;;;;4.53;64.73;97957.09;5038478;28;20068;-66
2021/01/24 09:49:06;;;;;;;47.10;27.77;;;;;;;4.55;64.83;97946.50;5038176;28;20871;-68
2021/01/24 09:51:34;;;;;;;57.58;31.25;;;;;;;4.71;64.51;97948.66;5039307;28;20051;-70
2021/01/24 09:54:01;;;;;;;46.00;28.00;;;;;;;4.87;63.96;97945.56;5040102;28;20642;-69
2021/01/24 09:56:28;;;;;;;52.22;30.13;;;;;;;4.98;63.75;97948.06;5039023;28;20055;-67
2021/01/24 09:58:56;;;;;;;55.33;31.38;;;;;;;4.99;63.69;97949.75;5038945;28;20063;-67
2021/01/24 10:01:23;;;;;;;54.90;34.80;;;;;;;5.01;63.67;97937.34;5038671;28;20476;-69
2021/01/24 10:03:51;;;;;;;55.90;30.80;;;;;;;5.02;63.44;97936.38;5040847;28;20053;-73
2021/01/24 10:06:18;;;;;;;51.70;29.65;;;;;;;5.08;63.44;97930.63;5044953;28;20060;-70
2021/01/24 10:08:45;;;;;;;50.60;29.08;;;;;;;5.14;63.38;97926.63;5043608;28;20041;-72
2021/01/24 10:11:14;;;;;;;46.63;29.25;;;;;;;5.03;63.56;97924.13;5043134;28;20666;-81
2021/01/24 10:13:41;;;;;;;59.17;36.42;;;;;;;4.97;63.93;97920.28;5009223;28;20060;-72
2021/01/24 10:16:08;;;;;;;75.68;42.30;;;;;;;5.03;63.64;97929.38;5022033;28;20072;-73
2021/01/24 10:18:35;;;;;;;88.40;48.28;;;;;;;5.02;63.66;97938.16;5020943;28;20049;-70
2021/01/24 10:21:03;;;;;;;147.25;75.82;;;;;;;4.94;63.78;97937.03;5022730;28;20038;-75
2021/01/24 10:23:30;;;;;;;252.45;130.75;;;;;;;4.84;63.80;97930.13;5024622;28;20156;-74
2021/01/24 10:26:03;;;;;;;185.90;89.47;;;;;;;4.81;64.04;97941.69;5026892;28;20052;-73
2021/01/24 10:28:29;;;;;;;185.15;74.47;;;;;;;4.74;64.13;97924.88;5022914;28;20713;-68
2021/01/24 10:30:57;;;;;;;326.42;158.13;;;;;;;4.62;64.35;97920.69;5018156;28;20044;-72
2021/01/24 10:33:26;;;;;;;200.95;92.00;;;;;;;4.53;64.80;97922.28;5019394;28;20046;-70
2021/01/24 10:35:55;;;;;;;70.53;40.63;;;;;;;4.52;64.75;97925.84;5023901;28;20079;-75
2021/01/24 10:38:22;;;;;;;46.15;26.80;;;;;;;4.53;64.76;97932.75;5025441;28;20056;-68
2021/01/24 10:40:49;;;;;;;69.75;43.00;;;;;;;4.54;64.74;97947.50;5016060;28;20139;-69
2021/01/24 10:43:16;;;;;;;80.50;48.28;;;;;;;4.46;64.93;97950.72;5020613;28;20049;-71
2021/01/24 10:45:43;;;;;;;85.85;49.70;;;;;;;4.40;65.09;97956.47;5016895;28;20045;-71
2021/01/24 10:48:10;;;;;;;72.40;43.22;;;;;;;4.37;65.11;97954.13;5017633;28;20065;-69
2021/01/24 10:50:39;;;;;;;73.20;43.67;;;;;;;4.30;65.31;97966.03;5018278;28;20046;-69
2021/01/24 10:53:06;;;;;;;94.28;50.10;;;;;;;4.15;65.62;97955.09;5018377;28;20490;-68
2021/01/24 10:55:33;;;;;;;105.55;54.42;;;;;;;3.99;65.80;97951.13;5020359;28;20049;-72
2021/01/24 10:58:00;;;;;;;118.57;57.90;;;;;;;3.94;65.99;97966.38;5017908;28;20084;-70
2021/01/24 11:00:27;;;;;;;146.32;71.45;;;;;;;3.90;66.10;97956.28;5018034;28;20138;-69
2021/01/24 11:02:54;;;;;;;136.18;72.15;;;;;;;3.88;66.33;97963.41;5021356;28;20099;-69
2021/01/24 11:05:20;;;;;;;122.10;65.28;;;;;;;3.86;66.29;97954.88;5019996;28;20056;-66
2021/01/24 11:07:48;;;;;;;99.57;55.08;;;;;;;3.82;66.33;97951.69;5015295;28;20072;-68
2021/01/24 11:10:15;;;;;;;108.97;60.92;;;;;;;3.76;66.44;97947.81;5015915;28;20073;-66
2021/01/24 11:12:42;;;;;;;117.68;67.32;;;;;;;3.72;66.54;97946.38;5024393;28;20144;-67
2021/01/24 11:15:10;;;;;;;101.43;55.38;;;;;;;3.68;66.97;97952.81;5035258;28;20045;-73
2021/01/24 11:17:38;;;;;;;103.75;55.40;;;;;;;3.68;67.12;97946.75;5040049;28;20056;-74
2021/01/24 11:20:07;;;;;;;74.25;37.88;;;;;;;3.69;66.86;97948.41;5037356;28;20068;-67
2021/01/24 11:22:37;;;;;;;75.63;40.53;;;;;;;3.68;66.86;97937.13;5002297;28;20057;-68
2021/01/24 11:25:05;;;;;;;78.60;36.45;;;;;;;3.71;67.12;97946.50;4987381;28;20707;-68
2021/01/24 11:27:32;;;;;;;81.10;39.85;;;;;;;3.72;66.76;97945.56;5036221;28;20107;-67
2021/01/24 11:29:59;;;;;;;90.32;44.88;;;;;;;3.78;66.54;97947.66;5035294;28;20045;-67